sensor_id;sensor_type;location;lat;lon;timestamp;P1;durP1;ratioP1;P2;durP2;ratioP2
2187;SDS011;1100;52.014;8.540;2023-04-01T00:01:55;4.07;;;0.80;;
2187;SDS011;1100;52.014;8.540;2023-04-01T00:04:21;3.87;;;0.80;;
2187;SDS011;1100;52.014;8.540;2023-04-01T00:06:47;2.83;;;0.60;;
2187;SDS011;1100;52.014;8.540;2023-04-01T00:09:12;5.03;;;0.63;;
2187;SDS011;1100;52.014;8.540;2023-04-01T00:11:38;3.93;;;0.77;;
2187;SDS011;1100;52.014;8.540;2023-04-01T00:14:04;4.85;;;1.00;;
2187;SDS011;1100;52.014;8.540;2023-04-01T00:16:30;5.83;;;0.60;;
2187;SDS011;1100;52.014;8.540;2023-04-01T00:18:55;4.65;;;0.50;;
2187;SDS011;1100;52.014;8.540;2023-04-01T00:21:21;4.03;;;0.70;;
2187;SDS011;1100;52.014;8.540;2023-04-01T00:23:47;5.50;;;0.70;;
2187;SDS011;1100;52.014;8.540;2023-04-01T00:26:13;4.47;;;0.50;;
2187;SDS011;1100;52.014;8.540;2023-04-01T00:28:39;4.27;;;0.50;;
2187;SDS011;1100;52.014;8.540;2023-04-01T00:31:08;4.53;;;0.80;;
2187;SDS011;1100;52.014;8.540;2023-04-01T00:33:35;5.53;;;0.57;;
2187;SDS011;1100;52.014;8.540;2023-04-01T00:36:11;3.08;;;0.38;;
2187;SDS011;1100;52.014;8.540;2023-04-01T00:38:38;5.97;;;0.40;;
2187;SDS011;1100;52.014;8.540;2023-04-01T00:41:04;2.63;;;0.40;;
2187;SDS011;1100;52.014;8.540;2023-04-01T00:43:30;3.05;;;0.70;;
2187;SDS011;1100;52.014;8.540;2023-04-01T00:45:56;4.68;;;0.50;;
2187;SDS011;1100;52.014;8.540;2023-04-01T00:48:22;5.57;;;0.80;;
2187;SDS011;1100;52.014;8.540;2023-04-01T00:50:53;3.15;;;0.30;;
2187;SDS011;1100;52.014;8.540;2023-04-01T00:53:41;4.57;;;0.57;;
2187;SDS011;1100;52.014;8.540;2023-04-01T00:56:27;3.38;;;0.40;;
2187;SDS011;1100;52.014;8.540;2023-04-01T00:58:59;3.10;;;0.50;;
2187;SDS011;1100;52.014;8.540;2023-04-01T01:01:26;4.07;;;0.40;;
2187;SDS011;1100;52.014;8.540;2023-04-01T01:03:54;5.95;;;0.60;;
2187;SDS011;1100;52.014;8.540;2023-04-01T01:06:26;4.43;;;0.33;;
2187;SDS011;1100;52.014;8.540;2023-04-01T01:11:49;3.35;;;0.50;;
2187;SDS011;1100;52.014;8.540;2023-04-01T01:17:12;3.03;;;0.35;;
2187;SDS011;1100;52.014;8.540;2023-04-01T01:23:07;3.42;;;0.40;;
2187;SDS011;1100;52.014;8.540;2023-04-01T01:28:35;2.75;;;0.30;;
2187;SDS011;1100;52.014;8.540;2023-04-01T01:36:25;4.05;;;0.43;;
2187;SDS011;1100;52.014;8.540;2023-04-01T01:38:53;2.83;;;0.43;;
2187;SDS011;1100;52.014;8.540;2023-04-01T01:41:21;3.05;;;0.30;;
2187;SDS011;1100;52.014;8.540;2023-04-01T01:43:51;3.22;;;0.30;;
2187;SDS011;1100;52.014;8.540;2023-04-01T01:46:22;2.27;;;0.20;;
2187;SDS011;1100;52.014;8.540;2023-04-01T01:48:50;2.58;;;0.43;;
2187;SDS011;1100;52.014;8.540;2023-04-01T01:51:17;2.20;;;0.35;;
2187;SDS011;1100;52.014;8.540;2023-04-01T01:53:45;3.10;;;0.30;;
2187;SDS011;1100;52.014;8.540;2023-04-01T01:56:11;0.93;;;0.20;;
2187;SDS011;1100;52.014;8.540;2023-04-01T01:59:00;1.80;;;0.20;;
2187;SDS011;1100;52.014;8.540;2023-04-01T02:01:29;1.73;;;0.20;;
2187;SDS011;1100;52.014;8.540;2023-04-01T02:03:59;2.47;;;0.28;;
2187;SDS011;1100;52.014;8.540;2023-04-01T02:06:29;1.50;;;0.20;;
2187;SDS011;1100;52.014;8.540;2023-04-01T02:08:59;3.55;;;0.40;;
2187;SDS011;1100;52.014;8.540;2023-04-01T02:11:34;2.85;;;0.40;;
2187;SDS011;1100;52.014;8.540;2023-04-01T02:16:55;3.25;;;0.40;;
2187;SDS011;1100;52.014;8.540;2023-04-01T02:19:26;1.67;;;0.30;;
2187;SDS011;1100;52.014;8.540;2023-04-01T02:21:59;3.05;;;0.40;;
2187;SDS011;1100;52.014;8.540;2023-04-01T02:24:28;1.55;;;0.20;;
2187;SDS011;1100;52.014;8.540;2023-04-01T02:26:55;2.80;;;0.20;;
2187;SDS011;1100;52.014;8.540;2023-04-01T02:29:21;2.25;;;0.20;;
2187;SDS011;1100;52.014;8.540;2023-04-01T02:31:50;2.83;;;0.20;;
2187;SDS011;1100;52.014;8.540;2023-04-01T02:34:17;2.50;;;0.30;;
2187;SDS011;1100;52.014;8.540;2023-04-01T02:36:43;2.00;;;0.30;;
2187;SDS011;1100;52.014;8.540;2023-04-01T02:39:09;4.47;;;0.30;;
2187;SDS011;1100;52.014;8.540;2023-04-01T02:41:41;2.27;;;0.30;;
2187;SDS011;1100;52.014;8.540;2023-04-01T02:44:08;2.20;;;0.20;;
2187;SDS011;1100;52.014;8.540;2023-04-01T02:46:34;2.38;;;0.20;;
2187;SDS011;1100;52.014;8.540;2023-04-01T02:49:02;1.87;;;0.20;;
2187;SDS011;1100;52.014;8.540;2023-04-01T02:51:28;1.98;;;0.20;;
2187;SDS011;1100;52.014;8.540;2023-04-01T02:53:53;2.20;;;0.27;;
2187;SDS011;1100;52.014;8.540;2023-04-01T02:56:18;3.30;;;0.30;;
2187;SDS011;1100;52.014;8.540;2023-04-01T02:58:44;2.20;;;0.30;;
2187;SDS011;1100;52.014;8.540;2023-04-01T03:01:10;2.63;;;0.30;;
2187;SDS011;1100;52.014;8.540;2023-04-01T03:03:36;2.40;;;0.20;;
2187;SDS011;1100;52.014;8.540;2023-04-01T03:06:08;1.20;;;0.20;;
2187;SDS011;1100;52.014;8.540;2023-04-01T03:08:35;2.58;;;0.25;;
2187;SDS011;1100;52.014;8.540;2023-04-01T03:11:00;3.10;;;0.20;;
2187;SDS011;1100;52.014;8.540;2023-04-01T03:13:26;2.60;;;0.20;;
2187;SDS011;1100;52.014;8.540;2023-04-01T03:15:51;3.63;;;0.30;;
2187;SDS011;1100;52.014;8.540;2023-04-01T03:18:16;1.30;;;0.20;;
2187;SDS011;1100;52.014;8.540;2023-04-01T03:20:42;1.77;;;0.20;;
2187;SDS011;1100;52.014;8.540;2023-04-01T03:23:07;1.90;;;0.20;;
2187;SDS011;1100;52.014;8.540;2023-04-01T03:25:33;2.45;;;0.30;;
2187;SDS011;1100;52.014;8.540;2023-04-01T03:27:58;1.43;;;0.20;;
2187;SDS011;1100;52.014;8.540;2023-04-01T03:30:24;1.67;;;0.20;;
2187;SDS011;1100;52.014;8.540;2023-04-01T03:32:50;1.42;;;0.20;;
2187;SDS011;1100;52.014;8.540;2023-04-01T03:35:16;2.30;;;0.37;;
2187;SDS011;1100;52.014;8.540;2023-04-01T03:37:41;1.83;;;0.20;;
2187;SDS011;1100;52.014;8.540;2023-04-01T03:40:07;1.70;;;0.20;;
2187;SDS011;1100;52.014;8.540;2023-04-01T03:42:32;1.95;;;0.30;;
2187;SDS011;1100;52.014;8.540;2023-04-01T03:44:57;2.10;;;0.30;;
2187;SDS011;1100;52.014;8.540;2023-04-01T03:47:23;2.23;;;0.30;;
2187;SDS011;1100;52.014;8.540;2023-04-01T03:49:48;1.53;;;0.27;;
2187;SDS011;1100;52.014;8.540;2023-04-01T03:52:13;1.10;;;0.20;;
2187;SDS011;1100;52.014;8.540;2023-04-01T03:54:39;1.42;;;0.20;;
2187;SDS011;1100;52.014;8.540;2023-04-01T03:57:05;2.20;;;0.20;;
2187;SDS011;1100;52.014;8.540;2023-04-01T03:59:30;2.20;;;0.40;;
2187;SDS011;1100;52.014;8.540;2023-04-01T04:01:56;1.37;;;0.20;;
2187;SDS011;1100;52.014;8.540;2023-04-01T04:04:21;1.40;;;0.30;;
2187;SDS011;1100;52.014;8.540;2023-04-01T04:06:46;1.50;;;0.20;;
2187;SDS011;1100;52.014;8.540;2023-04-01T04:09:12;1.63;;;0.20;;
2187;SDS011;1100;52.014;8.540;2023-04-01T04:11:38;1.57;;;0.43;;
2187;SDS011;1100;52.014;8.540;2023-04-01T04:14:03;2.20;;;0.63;;
2187;SDS011;1100;52.014;8.540;2023-04-01T04:16:29;1.30;;;0.20;;
2187;SDS011;1100;52.014;8.540;2023-04-01T04:18:54;2.33;;;0.20;;
2187;SDS011;1100;52.014;8.540;2023-04-01T04:21:19;1.37;;;0.20;;
2187;SDS011;1100;52.014;8.540;2023-04-01T04:23:45;2.10;;;0.20;;
2187;SDS011;1100;52.014;8.540;2023-04-01T04:26:11;2.03;;;0.20;;
2187;SDS011;1100;52.014;8.540;2023-04-01T04:28:38;1.35;;;0.20;;
2187;SDS011;1100;52.014;8.540;2023-04-01T04:31:04;1.37;;;0.20;;
2187;SDS011;1100;52.014;8.540;2023-04-01T04:33:34;2.65;;;0.20;;
2187;SDS011;1100;52.014;8.540;2023-04-01T04:36:00;2.33;;;0.20;;
2187;SDS011;1100;52.014;8.540;2023-04-01T04:38:26;1.40;;;0.20;;
2187;SDS011;1100;52.014;8.540;2023-04-01T04:40:52;1.67;;;0.20;;
2187;SDS011;1100;52.014;8.540;2023-04-01T04:43:18;2.17;;;0.20;;
2187;SDS011;1100;52.014;8.540;2023-04-01T04:45:44;1.20;;;0.20;;
2187;SDS011;1100;52.014;8.540;2023-04-01T04:48:10;1.20;;;0.20;;
2187;SDS011;1100;52.014;8.540;2023-04-01T04:50:45;1.48;;;0.20;;
2187;SDS011;1100;52.014;8.540;2023-04-01T04:53:15;2.50;;;0.30;;
2187;SDS011;1100;52.014;8.540;2023-04-01T04:55:45;1.30;;;0.20;;
2187;SDS011;1100;52.014;8.540;2023-04-01T04:58:11;2.05;;;0.30;;
2187;SDS011;1100;52.014;8.540;2023-04-01T05:00:38;1.87;;;0.30;;
2187;SDS011;1100;52.014;8.540;2023-04-01T05:03:04;1.77;;;0.30;;
2187;SDS011;1100;52.014;8.540;2023-04-01T05:05:32;1.73;;;0.20;;
2187;SDS011;1100;52.014;8.540;2023-04-01T05:07:58;2.23;;;0.33;;
2187;SDS011;1100;52.014;8.540;2023-04-01T05:10:23;2.67;;;0.20;;
2187;SDS011;1100;52.014;8.540;2023-04-01T05:12:49;1.80;;;0.50;;
2187;SDS011;1100;52.014;8.540;2023-04-01T05:15:14;2.37;;;0.43;;
2187;SDS011;1100;52.014;8.540;2023-04-01T05:17:40;3.17;;;0.40;;
2187;SDS011;1100;52.014;8.540;2023-04-01T05:20:05;2.20;;;0.37;;
2187;SDS011;1100;52.014;8.540;2023-04-01T05:22:31;3.13;;;0.40;;
2187;SDS011;1100;52.014;8.540;2023-04-01T05:24:57;2.22;;;0.32;;
2187;SDS011;1100;52.014;8.540;2023-04-01T05:27:22;2.07;;;0.30;;
2187;SDS011;1100;52.014;8.540;2023-04-01T05:29:47;1.60;;;0.30;;
2187;SDS011;1100;52.014;8.540;2023-04-01T05:32:13;1.70;;;0.40;;
2187;SDS011;1100;52.014;8.540;2023-04-01T05:34:38;1.63;;;0.30;;
2187;SDS011;1100;52.014;8.540;2023-04-01T05:37:03;2.63;;;0.40;;
2187;SDS011;1100;52.014;8.540;2023-04-01T05:39:29;1.63;;;0.30;;
2187;SDS011;1100;52.014;8.540;2023-04-01T05:41:54;1.67;;;0.20;;
2187;SDS011;1100;52.014;8.540;2023-04-01T05:44:19;2.97;;;0.30;;
2187;SDS011;1100;52.014;8.540;2023-04-01T05:46:45;1.30;;;0.20;;
2187;SDS011;1100;52.014;8.540;2023-04-01T05:49:10;1.77;;;0.30;;
2187;SDS011;1100;52.014;8.540;2023-04-01T05:51:35;1.73;;;0.20;;
2187;SDS011;1100;52.014;8.540;2023-04-01T05:54:01;1.97;;;0.30;;
2187;SDS011;1100;52.014;8.540;2023-04-01T05:56:26;2.50;;;0.30;;
2187;SDS011;1100;52.014;8.540;2023-04-01T05:58:52;1.97;;;0.30;;
2187;SDS011;1100;52.014;8.540;2023-04-01T06:01:18;1.63;;;0.30;;
2187;SDS011;1100;52.014;8.540;2023-04-01T06:03:44;2.38;;;0.30;;
2187;SDS011;1100;52.014;8.540;2023-04-01T06:06:14;2.20;;;0.37;;
2187;SDS011;1100;52.014;8.540;2023-04-01T06:08:41;1.88;;;0.22;;
2187;SDS011;1100;52.014;8.540;2023-04-01T06:14:07;1.75;;;0.20;;
2187;SDS011;1100;52.014;8.540;2023-04-01T06:20:04;1.83;;;0.20;;
2187;SDS011;1100;52.014;8.540;2023-04-01T06:22:39;2.72;;;0.30;;
2187;SDS011;1100;52.014;8.540;2023-04-01T06:25:40;2.83;;;0.40;;
2187;SDS011;1100;52.014;8.540;2023-04-01T06:41:35;1.40;;;0.20;;
2187;SDS011;1100;52.014;8.540;2023-04-01T06:49:55;2.80;;;0.20;;
2187;SDS011;1100;52.014;8.540;2023-04-01T06:52:48;2.55;;;0.30;;
2187;SDS011;1100;52.014;8.540;2023-04-01T06:55:41;1.33;;;0.20;;
2187;SDS011;1100;52.014;8.540;2023-04-01T06:58:19;1.40;;;0.20;;
2187;SDS011;1100;52.014;8.540;2023-04-01T07:00:48;1.30;;;0.20;;
2187;SDS011;1100;52.014;8.540;2023-04-01T07:06:15;2.08;;;0.30;;
2187;SDS011;1100;52.014;8.540;2023-04-01T07:09:05;2.85;;;0.40;;
2187;SDS011;1100;52.014;8.540;2023-04-01T07:11:36;2.33;;;0.30;;
2187;SDS011;1100;52.014;8.540;2023-04-01T07:14:22;1.67;;;0.30;;
2187;SDS011;1100;52.014;8.540;2023-04-01T07:16:58;2.43;;;0.50;;
2187;SDS011;1100;52.014;8.540;2023-04-01T07:19:45;2.13;;;0.45;;
2187;SDS011;1100;52.014;8.540;2023-04-01T07:22:33;2.97;;;0.50;;
2187;SDS011;1100;52.014;8.540;2023-04-01T07:27:47;2.78;;;0.65;;
2187;SDS011;1100;52.014;8.540;2023-04-01T07:30:13;2.53;;;0.60;;
2187;SDS011;1100;52.014;8.540;2023-04-01T07:55:16;2.83;;;0.70;;
2187;SDS011;1100;52.014;8.540;2023-04-01T07:58:03;2.38;;;0.60;;
2187;SDS011;1100;52.014;8.540;2023-04-01T08:12:43;4.05;;;0.80;;
2187;SDS011;1100;52.014;8.540;2023-04-01T08:15:26;4.57;;;0.70;;
2187;SDS011;1100;52.014;8.540;2023-04-01T08:18:03;3.37;;;1.07;;
2187;SDS011;1100;52.014;8.540;2023-04-01T08:23:22;3.97;;;0.80;;
2187;SDS011;1100;52.014;8.540;2023-04-01T08:25:53;3.20;;;0.70;;
2187;SDS011;1100;52.014;8.540;2023-04-01T08:28:31;2.38;;;0.60;;
2187;SDS011;1100;52.014;8.540;2023-04-01T08:31:04;2.87;;;0.67;;
2187;SDS011;1100;52.014;8.540;2023-04-01T08:33:35;3.60;;;0.90;;
2187;SDS011;1100;52.014;8.540;2023-04-01T08:36:08;4.63;;;0.88;;
2187;SDS011;1100;52.014;8.540;2023-04-01T08:38:51;4.35;;;0.73;;
2187;SDS011;1100;52.014;8.540;2023-04-01T08:55:37;5.82;;;1.17;;
2187;SDS011;1100;52.014;8.540;2023-04-01T08:58:31;3.67;;;0.97;;
2187;SDS011;1100;52.014;8.540;2023-04-01T09:12:44;2.90;;;1.00;;
2187;SDS011;1100;52.014;8.540;2023-04-01T09:26:45;2.93;;;0.90;;
2187;SDS011;1100;52.014;8.540;2023-04-01T09:42:42;3.47;;;0.55;;
2187;SDS011;1100;52.014;8.540;2023-04-01T09:45:11;3.00;;;0.65;;
2187;SDS011;1100;52.014;8.540;2023-04-01T09:53:42;2.20;;;0.53;;
2187;SDS011;1100;52.014;8.540;2023-04-01T10:18:56;2.42;;;0.63;;
2187;SDS011;1100;52.014;8.540;2023-04-01T10:26:54;2.60;;;0.70;;
2187;SDS011;1100;52.014;8.540;2023-04-01T10:33:16;3.75;;;0.85;;
2187;SDS011;1100;52.014;8.540;2023-04-01T10:43:13;3.08;;;0.70;;
2187;SDS011;1100;52.014;8.540;2023-04-01T10:54:20;3.70;;;1.05;;
2187;SDS011;1100;52.014;8.540;2023-04-01T11:53:06;5.10;;;1.30;;
2187;SDS011;1100;52.014;8.540;2023-04-01T12:15:16;3.20;;;1.10;;
2187;SDS011;1100;52.014;8.540;2023-04-01T12:17:50;2.97;;;1.00;;
2187;SDS011;1100;52.014;8.540;2023-04-01T12:20:33;3.25;;;0.90;;
2187;SDS011;1100;52.014;8.540;2023-04-01T12:23:13;4.40;;;1.00;;
2187;SDS011;1100;52.014;8.540;2023-04-01T12:34:09;3.83;;;1.30;;
2187;SDS011;1100;52.014;8.540;2023-04-01T12:37:02;3.33;;;1.20;;
2187;SDS011;1100;52.014;8.540;2023-04-01T12:42:56;2.75;;;0.93;;
2187;SDS011;1100;52.014;8.540;2023-04-01T12:45:38;4.25;;;0.93;;
2187;SDS011;1100;52.014;8.540;2023-04-01T12:54:22;2.93;;;1.00;;
2187;SDS011;1100;52.014;8.540;2023-04-01T12:57:14;3.70;;;1.20;;
2187;SDS011;1100;52.014;8.540;2023-04-01T13:02:57;3.22;;;1.00;;
2187;SDS011;1100;52.014;8.540;2023-04-01T13:08:28;3.30;;;1.10;;
2187;SDS011;1100;52.014;8.540;2023-04-01T13:11:25;3.58;;;1.20;;
2187;SDS011;1100;52.014;8.540;2023-04-01T13:19:20;2.95;;;0.70;;
2187;SDS011;1100;52.014;8.540;2023-04-01T13:25:16;2.13;;;0.50;;
2187;SDS011;1100;52.014;8.540;2023-04-01T13:27:49;2.60;;;0.50;;
2187;SDS011;1100;52.014;8.540;2023-04-01T13:30:30;2.28;;;0.50;;
2187;SDS011;1100;52.014;8.540;2023-04-01T13:39:05;2.22;;;0.60;;
2187;SDS011;1100;52.014;8.540;2023-04-01T13:42:37;2.58;;;0.70;;
2187;SDS011;1100;52.014;8.540;2023-04-01T13:44:36;2.67;;;0.50;;
2187;SDS011;1100;52.014;8.540;2023-04-01T14:01:06;2.60;;;0.70;;
2187;SDS011;1100;52.014;8.540;2023-04-01T14:06:27;2.80;;;0.80;;
2187;SDS011;1100;52.014;8.540;2023-04-01T14:12:04;3.95;;;1.40;;
2187;SDS011;1100;52.014;8.540;2023-04-01T14:17:44;4.30;;;1.70;;
2187;SDS011;1100;52.014;8.540;2023-04-01T14:20:25;4.15;;;1.70;;
2187;SDS011;1100;52.014;8.540;2023-04-01T14:23:17;3.80;;;1.63;;
2187;SDS011;1100;52.014;8.540;2023-04-01T14:26:34;4.35;;;2.00;;
2187;SDS011;1100;52.014;8.540;2023-04-01T14:34:54;6.90;;;2.20;;
2187;SDS011;1100;52.014;8.540;2023-04-01T14:43:19;4.65;;;1.55;;
2187;SDS011;1100;52.014;8.540;2023-04-01T14:48:49;4.97;;;1.50;;
2187;SDS011;1100;52.014;8.540;2023-04-01T14:51:39;3.90;;;1.45;;
2187;SDS011;1100;52.014;8.540;2023-04-01T14:56:42;4.22;;;1.73;;
2187;SDS011;1100;52.014;8.540;2023-04-01T15:01:58;4.63;;;1.60;;
2187;SDS011;1100;52.014;8.540;2023-04-01T15:10:01;4.10;;;1.67;;
2187;SDS011;1100;52.014;8.540;2023-04-01T15:18:32;3.80;;;1.48;;
2187;SDS011;1100;52.014;8.540;2023-04-01T15:24:10;3.75;;;1.40;;
2187;SDS011;1100;52.014;8.540;2023-04-01T15:26:52;4.03;;;1.47;;
2187;SDS011;1100;52.014;8.540;2023-04-01T15:43:07;4.55;;;2.20;;
2187;SDS011;1100;52.014;8.540;2023-04-01T15:48:30;4.55;;;1.55;;
2187;SDS011;1100;52.014;8.540;2023-04-01T16:02:35;4.75;;;1.55;;
2187;SDS011;1100;52.014;8.540;2023-04-01T16:18:46;4.22;;;1.50;;
2187;SDS011;1100;52.014;8.540;2023-04-01T16:21:37;3.87;;;1.20;;
2187;SDS011;1100;52.014;8.540;2023-04-01T16:24:12;4.63;;;1.30;;
2187;SDS011;1100;52.014;8.540;2023-04-01T16:29:48;2.50;;;0.60;;
2187;SDS011;1100;52.014;8.540;2023-04-01T16:35:05;2.43;;;0.60;;
2187;SDS011;1100;52.014;8.540;2023-04-01T16:37:52;3.05;;;0.63;;
2187;SDS011;1100;52.014;8.540;2023-04-01T16:40:25;2.55;;;0.50;;
2187;SDS011;1100;52.014;8.540;2023-04-01T16:45:38;3.45;;;0.70;;
2187;SDS011;1100;52.014;8.540;2023-04-01T16:48:27;2.90;;;0.40;;
2187;SDS011;1100;52.014;8.540;2023-04-01T16:51:09;2.50;;;0.45;;
2187;SDS011;1100;52.014;8.540;2023-04-01T16:56:44;4.72;;;0.85;;
2187;SDS011;1100;52.014;8.540;2023-04-01T17:01:49;4.13;;;1.50;;
2187;SDS011;1100;52.014;8.540;2023-04-01T17:06:56;3.85;;;1.05;;
2187;SDS011;1100;52.014;8.540;2023-04-01T17:18:16;3.70;;;0.80;;
2187;SDS011;1100;52.014;8.540;2023-04-01T17:20:49;3.35;;;1.00;;
2187;SDS011;1100;52.014;8.540;2023-04-01T17:23:24;3.17;;;0.80;;
2187;SDS011;1100;52.014;8.540;2023-04-01T17:26:10;3.22;;;0.90;;
2187;SDS011;1100;52.014;8.540;2023-04-01T17:28:47;4.23;;;1.30;;
2187;SDS011;1100;52.014;8.540;2023-04-01T17:31:32;3.90;;;1.40;;
2187;SDS011;1100;52.014;8.540;2023-04-01T17:34:12;3.80;;;1.05;;
2187;SDS011;1100;52.014;8.540;2023-04-01T17:37:10;3.40;;;1.10;;
2187;SDS011;1100;52.014;8.540;2023-04-01T17:39:44;5.25;;;1.77;;
2187;SDS011;1100;52.014;8.540;2023-04-01T17:42:22;3.67;;;1.30;;
2187;SDS011;1100;52.014;8.540;2023-04-01T17:45:52;5.13;;;1.30;;
2187;SDS011;1100;52.014;8.540;2023-04-01T17:53:19;4.90;;;1.20;;
2187;SDS011;1100;52.014;8.540;2023-04-01T17:56:02;4.43;;;1.50;;
2187;SDS011;1100;52.014;8.540;2023-04-01T18:06:25;5.57;;;1.52;;
2187;SDS011;1100;52.014;8.540;2023-04-01T18:09:17;4.85;;;1.70;;
2187;SDS011;1100;52.014;8.540;2023-04-01T18:17:47;2.80;;;0.75;;
2187;SDS011;1100;52.014;8.540;2023-04-01T18:23:04;4.07;;;1.25;;
2187;SDS011;1100;52.014;8.540;2023-04-01T18:25:44;4.67;;;1.60;;
2187;SDS011;1100;52.014;8.540;2023-04-01T18:28:25;5.13;;;2.17;;
2187;SDS011;1100;52.014;8.540;2023-04-01T18:36:15;4.05;;;1.00;;
2187;SDS011;1100;52.014;8.540;2023-04-01T18:39:00;3.83;;;1.40;;
2187;SDS011;1100;52.014;8.540;2023-04-01T18:44:27;4.45;;;1.73;;
2187;SDS011;1100;52.014;8.540;2023-04-01T18:50:41;5.68;;;2.00;;
2187;SDS011;1100;52.014;8.540;2023-04-01T18:56:01;4.78;;;1.70;;
2187;SDS011;1100;52.014;8.540;2023-04-01T18:58:34;4.50;;;1.23;;
2187;SDS011;1100;52.014;8.540;2023-04-01T19:01:16;4.53;;;1.60;;
2187;SDS011;1100;52.014;8.540;2023-04-01T19:03:53;4.78;;;1.70;;
2187;SDS011;1100;52.014;8.540;2023-04-01T19:09:14;3.83;;;1.10;;
2187;SDS011;1100;52.014;8.540;2023-04-01T19:17:37;3.90;;;1.20;;
2187;SDS011;1100;52.014;8.540;2023-04-01T19:25:35;4.10;;;1.33;;
2187;SDS011;1100;52.014;8.540;2023-04-01T19:34:15;4.23;;;1.30;;
2187;SDS011;1100;52.014;8.540;2023-04-01T19:45:39;3.95;;;1.40;;
2187;SDS011;1100;52.014;8.540;2023-04-01T19:48:24;4.90;;;1.80;;
2187;SDS011;1100;52.014;8.540;2023-04-01T19:50:53;4.82;;;1.63;;
2187;SDS011;1100;52.014;8.540;2023-04-01T19:53:37;4.40;;;1.88;;
2187;SDS011;1100;52.014;8.540;2023-04-01T20:01:10;4.40;;;1.60;;
2187;SDS011;1100;52.014;8.540;2023-04-01T20:03:49;4.80;;;2.10;;
2187;SDS011;1100;52.014;8.540;2023-04-01T20:09:04;5.00;;;1.90;;
2187;SDS011;1100;52.014;8.540;2023-04-01T20:11:45;4.43;;;1.80;;
2187;SDS011;1100;52.014;8.540;2023-04-01T20:20:43;4.60;;;1.80;;
2187;SDS011;1100;52.014;8.540;2023-04-01T20:41:32;4.53;;;2.00;;
2187;SDS011;1100;52.014;8.540;2023-04-01T20:44:26;6.00;;;2.05;;
2187;SDS011;1100;52.014;8.540;2023-04-01T20:52:32;5.40;;;2.30;;
2187;SDS011;1100;52.014;8.540;2023-04-01T20:55:13;5.90;;;2.57;;
2187;SDS011;1100;52.014;8.540;2023-04-01T21:03:29;6.72;;;2.58;;
2187;SDS011;1100;52.014;8.540;2023-04-01T21:06:18;6.55;;;3.00;;
2187;SDS011;1100;52.014;8.540;2023-04-01T21:11:51;6.75;;;2.97;;
2187;SDS011;1100;52.014;8.540;2023-04-01T21:31:32;4.97;;;2.10;;
2187;SDS011;1100;52.014;8.540;2023-04-01T21:40:24;6.05;;;2.50;;
2187;SDS011;1100;52.014;8.540;2023-04-01T22:00:46;5.65;;;2.45;;
2187;SDS011;1100;52.014;8.540;2023-04-01T22:03:00;5.80;;;2.47;;
2187;SDS011;1100;52.014;8.540;2023-04-01T22:05:46;5.40;;;2.23;;
2187;SDS011;1100;52.014;8.540;2023-04-01T22:14:06;5.43;;;2.03;;
2187;SDS011;1100;52.014;8.540;2023-04-01T22:22:20;5.30;;;2.22;;
2187;SDS011;1100;52.014;8.540;2023-04-01T22:32:57;4.77;;;1.93;;
2187;SDS011;1100;52.014;8.540;2023-04-01T22:38:02;5.13;;;1.83;;
2187;SDS011;1100;52.014;8.540;2023-04-01T22:43:32;5.05;;;1.70;;
2187;SDS011;1100;52.014;8.540;2023-04-01T22:46:15;4.20;;;1.40;;
2187;SDS011;1100;52.014;8.540;2023-04-01T22:48:46;3.80;;;1.23;;
2187;SDS011;1100;52.014;8.540;2023-04-01T22:51:21;3.60;;;1.20;;
2187;SDS011;1100;52.014;8.540;2023-04-01T22:56:43;4.50;;;1.10;;
2187;SDS011;1100;52.014;8.540;2023-04-01T22:59:26;3.97;;;1.07;;
2187;SDS011;1100;52.014;8.540;2023-04-01T23:05:00;4.10;;;1.00;;
2187;SDS011;1100;52.014;8.540;2023-04-01T23:07:40;4.20;;;1.00;;
2187;SDS011;1100;52.014;8.540;2023-04-01T23:10:15;3.58;;;1.23;;
2187;SDS011;1100;52.014;8.540;2023-04-01T23:12:58;4.47;;;1.67;;
2187;SDS011;1100;52.014;8.540;2023-04-01T23:15:26;4.13;;;1.33;;
2187;SDS011;1100;52.014;8.540;2023-04-01T23:29:15;5.05;;;1.50;;
2187;SDS011;1100;52.014;8.540;2023-04-01T23:31:43;5.22;;;1.63;;
2187;SDS011;1100;52.014;8.540;2023-04-01T23:34:35;5.07;;;1.50;;
2187;SDS011;1100;52.014;8.540;2023-04-01T23:37:04;4.20;;;1.50;;
2187;SDS011;1100;52.014;8.540;2023-04-01T23:39:39;4.23;;;1.50;;
2187;SDS011;1100;52.014;8.540;2023-04-01T23:42:27;4.35;;;1.33;;
2187;SDS011;1100;52.014;8.540;2023-04-01T23:44:56;5.10;;;1.65;;
2187;SDS011;1100;52.014;8.540;2023-04-01T23:47:25;5.03;;;1.55;;
2187;SDS011;1100;52.014;8.540;2023-04-01T23:49:55;5.43;;;1.90;;
2187;SDS011;1100;52.014;8.540;2023-04-01T23:52:24;6.47;;;2.10;;
2187;SDS011;1100;52.014;8.540;2023-04-01T23:57:26;5.55;;;1.92;;
